createdAt,value
2019-02-21T00:00:37.692Z,12.17
2019-02-21T00:03:06.250Z,12.40
2019-02-21T00:05:34.691Z,12.97
2019-02-21T00:08:03.114Z,12.87
2019-02-21T00:10:31.593Z,12.90
2019-02-21T00:13:00.141Z,11.83
2019-02-21T00:15:28.586Z,12.53
2019-02-21T00:17:57.098Z,12.43
2019-02-21T00:20:25.598Z,12.30
2019-02-21T00:22:54.066Z,12.60
2019-02-21T00:25:22.527Z,12.13
2019-02-21T00:27:50.955Z,12.07
2019-02-21T00:30:19.410Z,12.83
2019-02-21T00:32:47.836Z,13.03
2019-02-21T00:35:16.295Z,12.50
2019-02-21T00:37:44.773Z,11.33
2019-02-21T00:40:13.247Z,12.60
2019-02-21T00:42:41.680Z,12.43
2019-02-21T00:45:10.299Z,12.10
2019-02-21T00:47:38.731Z,12.40
2019-02-21T00:50:07.159Z,11.33
2019-02-21T00:52:35.615Z,12.67
2019-02-21T00:55:09.382Z,11.90
2019-02-21T00:57:37.889Z,12.40
2019-02-21T01:00:12.968Z,12.67
2019-02-21T01:02:44.624Z,12.30
2019-02-21T01:05:22.594Z,11.83
2019-02-21T01:07:51.099Z,12.47
2019-02-21T01:10:19.539Z,12.57
2019-02-21T01:12:48.129Z,12.03
2019-02-21T01:15:16.627Z,12.03
2019-02-21T01:17:45.085Z,11.90
2019-02-21T01:20:13.515Z,12.80
2019-02-21T01:22:42.053Z,12.53
2019-02-21T01:25:10.546Z,12.30
2019-02-21T01:27:39.071Z,13.00
2019-02-21T01:30:08.341Z,13.33
2019-02-21T01:32:36.800Z,13.70
2019-02-21T01:35:06.571Z,13.27
2019-02-21T01:37:36.639Z,12.33
2019-02-21T01:40:07.710Z,12.97
2019-02-21T01:42:36.231Z,13.20
2019-02-21T01:45:06.691Z,12.27
2019-02-21T01:47:35.161Z,12.03
2019-02-21T01:50:04.054Z,12.37
2019-02-21T01:52:32.499Z,12.40
2019-02-21T01:55:01.003Z,12.70
2019-02-21T01:57:29.503Z,12.27
2019-02-21T01:59:58.024Z,12.23
2019-02-21T02:02:26.464Z,12.77
2019-02-21T02:04:54.977Z,12.00
2019-02-21T02:07:23.403Z,12.40
2019-02-21T02:09:51.848Z,11.67
2019-02-21T02:12:20.361Z,12.37
2019-02-21T02:14:48.867Z,11.80
2019-02-21T02:17:17.331Z,12.30
2019-02-21T02:19:45.783Z,12.47
2019-02-21T02:22:14.231Z,12.30
2019-02-21T02:24:42.687Z,12.90
2019-02-21T02:27:11.118Z,11.97
2019-02-21T02:29:39.766Z,12.57
2019-02-21T02:32:09.554Z,12.77
2019-02-21T02:34:38.503Z,12.53
2019-02-21T02:37:06.948Z,11.70
2019-02-21T02:39:35.406Z,12.37
2019-02-21T02:42:03.838Z,12.17
2019-02-21T02:44:32.303Z,12.07
2019-02-21T02:47:00.727Z,12.20
2019-02-21T02:49:29.274Z,13.47
2019-02-21T02:51:57.713Z,12.87
2019-02-21T02:54:26.158Z,12.23
2019-02-21T02:56:54.643Z,12.53
2019-02-21T02:59:23.514Z,13.10
2019-02-21T03:01:51.960Z,11.97
2019-02-21T03:04:20.502Z,12.73
2019-02-21T03:06:49.012Z,13.00
2019-02-21T03:09:17.433Z,13.10
2019-02-21T03:11:45.992Z,12.47
2019-02-21T03:14:14.425Z,12.43
2019-02-21T03:16:42.875Z,13.00
2019-02-21T03:19:11.314Z,12.37
2019-02-21T03:21:39.754Z,13.33
2019-02-21T03:24:08.179Z,11.97
2019-02-21T03:26:36.632Z,13.07
2019-02-21T03:29:05.076Z,12.13
2019-02-21T03:31:33.516Z,12.60
2019-02-21T03:34:01.966Z,13.00
2019-02-21T03:36:30.531Z,12.93
2019-02-21T03:38:59.037Z,12.20
2019-02-21T03:41:27.479Z,12.23
2019-02-21T03:43:55.917Z,12.67
2019-02-21T03:46:24.372Z,13.20
2019-02-21T03:48:52.801Z,13.37
2019-02-21T03:51:21.283Z,11.90
2019-02-21T03:53:49.799Z,12.53
2019-02-21T03:56:18.262Z,12.87
2019-02-21T03:58:46.973Z,11.90
2019-02-21T04:01:15.581Z,12.33
2019-02-21T04:03:44.107Z,12.17
2019-02-21T04:06:12.639Z,12.57
2019-02-21T04:08:41.170Z,12.13
2019-02-21T04:11:09.759Z,13.00
2019-02-21T04:13:38.209Z,12.57
2019-02-21T04:16:06.709Z,12.80
2019-02-21T04:18:35.179Z,13.37
2019-02-21T04:21:03.599Z,12.30
2019-02-21T04:23:33.963Z,12.30
2019-02-21T04:26:02.427Z,12.90
2019-02-21T04:28:30.898Z,12.93
2019-02-21T04:30:59.329Z,13.13
2019-02-21T04:33:27.802Z,12.53
2019-02-21T04:35:56.251Z,13.10
2019-02-21T04:38:24.758Z,12.80
2019-02-21T04:40:53.195Z,12.47
2019-02-21T04:43:21.661Z,12.97
2019-02-21T04:45:50.088Z,12.47
2019-02-21T04:48:18.550Z,13.70
2019-02-21T04:50:47.090Z,13.50
2019-02-21T04:53:15.531Z,13.73
2019-02-21T04:55:43.964Z,13.07
2019-02-21T04:58:12.451Z,12.37
2019-02-21T05:00:40.940Z,12.53
2019-02-21T05:03:09.375Z,13.30
2019-02-21T05:05:37.823Z,12.90
2019-02-21T05:08:06.364Z,13.73
2019-02-21T05:10:34.898Z,13.50
2019-02-21T05:13:03.354Z,13.83
2019-02-21T05:15:31.826Z,12.90
2019-02-21T05:18:00.252Z,13.27
2019-02-21T05:20:28.718Z,13.77
2019-02-21T05:22:57.240Z,14.43
2019-02-21T05:25:25.683Z,13.50
2019-02-21T05:27:55.089Z,14.73
2019-02-21T05:30:25.327Z,14.37
2019-02-21T05:33:07.503Z,15.07
2019-02-21T05:35:37.617Z,14.87
2019-02-21T05:38:16.471Z,14.63
2019-02-21T05:40:46.595Z,15.03
2019-02-21T05:43:22.732Z,15.67
2019-02-21T05:46:02.124Z,16.60
2019-02-21T05:48:40.236Z,18.17
2019-02-21T05:51:15.826Z,22.27
2019-02-21T05:53:45.950Z,20.37
2019-02-21T05:56:32.304Z,18.87
2019-02-21T05:59:05.351Z,17.30
2019-02-21T06:01:47.429Z,16.80
2019-02-21T06:04:20.488Z,17.33
2019-02-21T06:07:09.870Z,16.50
2019-02-21T06:09:42.666Z,16.13
2019-02-21T06:12:12.844Z,16.03
2019-02-21T06:14:42.937Z,16.23
2019-02-21T06:17:21.886Z,15.40
2019-02-21T06:19:54.415Z,15.27
2019-02-21T06:22:27.063Z,16.33
2019-02-21T06:25:09.439Z,15.37
2019-02-21T06:27:39.607Z,16.87
2019-02-21T06:30:10.586Z,16.53
2019-02-21T06:32:40.848Z,16.53
2019-02-21T06:35:10.152Z,16.17
2019-02-21T06:37:38.670Z,16.77
2019-02-21T06:40:07.572Z,17.07
2019-02-21T06:42:36.032Z,15.00
2019-02-21T06:45:05.598Z,16.57
2019-02-21T06:47:34.044Z,19.23
2019-02-21T06:50:02.587Z,19.00
2019-02-21T06:52:31.089Z,24.73
2019-02-21T06:55:02.067Z,23.13
2019-02-21T06:57:29.735Z,20.07
2019-02-21T06:59:58.168Z,22.03
2019-02-21T07:02:28.148Z,21.93
2019-02-21T07:04:56.895Z,20.20
2019-02-21T07:07:25.497Z,18.47
2019-02-21T07:09:53.940Z,17.07
2019-02-21T07:12:22.378Z,16.77
2019-02-21T07:14:50.841Z,16.20
2019-02-21T07:17:19.278Z,17.53
2019-02-21T07:19:47.728Z,21.17
2019-02-21T07:22:18.145Z,21.57
2019-02-21T07:24:48.003Z,22.27
2019-02-21T07:27:16.442Z,18.83
2019-02-21T07:29:44.965Z,19.47
2019-02-21T07:32:13.400Z,18.13
2019-02-21T07:34:41.866Z,17.93
2019-02-21T07:37:18.184Z,16.73
2019-02-21T07:39:40.594Z,16.10
2019-02-21T07:42:09.027Z,16.73
2019-02-21T07:44:37.486Z,18.80
2019-02-21T07:47:05.915Z,15.90
2019-02-21T07:49:34.376Z,15.83
2019-02-21T07:52:05.388Z,16.20
2019-02-21T07:54:32.987Z,15.13
2019-02-21T07:57:01.988Z,14.83
2019-02-21T07:59:30.580Z,16.60
2019-02-21T08:01:59.119Z,15.67
2019-02-21T08:04:27.557Z,16.10
2019-02-21T08:06:56.008Z,16.20
2019-02-21T08:09:24.548Z,15.50
2019-02-21T08:11:53.098Z,15.97
2019-02-21T08:14:21.519Z,16.13
2019-02-21T08:16:49.999Z,16.43
2019-02-21T08:19:18.440Z,15.37
2019-02-21T08:21:46.956Z,16.20
2019-02-21T08:24:15.555Z,15.70
2019-02-21T08:26:44.188Z,17.47
2019-02-21T08:29:12.620Z,15.90
2019-02-21T08:31:41.075Z,17.70
2019-02-21T08:34:11.227Z,17.10
2019-02-21T08:36:39.708Z,17.57
2019-02-21T08:39:09.397Z,17.40
2019-02-21T08:41:37.862Z,16.17
2019-02-21T08:44:06.296Z,17.30
2019-02-21T08:46:34.829Z,16.10
2019-02-21T08:49:03.259Z,16.20
2019-02-21T08:51:31.723Z,17.90
2019-02-21T08:54:00.156Z,17.70
2019-02-21T08:56:29.961Z,17.00
2019-02-21T08:58:58.630Z,16.47
2019-02-21T09:01:27.071Z,15.90
2019-02-21T09:03:55.687Z,15.70
2019-02-21T09:06:24.843Z,16.37
2019-02-21T09:08:53.529Z,15.83
2019-02-21T09:11:22.108Z,16.13
2019-02-21T09:13:50.573Z,17.00
2019-02-21T09:16:19.017Z,16.93
2019-02-21T09:18:47.579Z,18.30
2019-02-21T09:21:16.015Z,16.40
2019-02-21T09:23:44.579Z,17.00
2019-02-21T09:26:13.107Z,17.90
2019-02-21T09:28:41.604Z,18.13
2019-02-21T09:31:10.119Z,16.80
2019-02-21T09:33:38.614Z,17.67
2019-02-21T09:36:07.115Z,18.53
2019-02-21T09:38:35.590Z,18.30
2019-02-21T09:41:04.587Z,18.03
2019-02-21T09:43:33.175Z,17.00
2019-02-21T09:46:01.701Z,18.03
2019-02-21T09:48:30.179Z,18.83
2019-02-21T09:50:58.631Z,20.27
2019-02-21T09:53:27.076Z,20.17
2019-02-21T09:55:55.555Z,20.00
2019-02-21T09:58:24.176Z,18.17
2019-02-21T10:00:52.640Z,17.63
2019-02-21T10:03:21.089Z,20.03
2019-02-21T10:05:49.940Z,18.67
2019-02-21T10:08:18.564Z,17.77
2019-02-21T10:10:47.088Z,18.37
2019-02-21T10:13:15.525Z,18.40
2019-02-21T10:15:43.976Z,17.70
2019-02-21T10:18:12.427Z,17.57
2019-02-21T10:20:40.989Z,18.30
2019-02-21T10:23:09.415Z,17.57
2019-02-21T10:25:37.986Z,18.67
2019-02-21T10:28:06.506Z,18.67
2019-02-21T10:30:36.364Z,19.47
2019-02-21T10:33:05.137Z,18.43
2019-02-21T10:35:33.599Z,19.10
2019-02-21T10:38:02.053Z,19.57
2019-02-21T10:40:32.730Z,19.63
2019-02-21T10:43:00.802Z,18.43
2019-02-21T10:45:29.251Z,18.97
2019-02-21T10:47:57.783Z,18.10
2019-02-21T10:50:26.220Z,18.73
2019-02-21T10:52:54.682Z,19.40
2019-02-21T10:55:23.492Z,20.03
2019-02-21T10:57:51.967Z,19.33
2019-02-21T11:00:26.401Z,21.40
2019-02-21T11:02:56.965Z,23.20
2019-02-21T11:05:25.568Z,21.80
2019-02-21T11:07:54.159Z,21.13
2019-02-21T11:10:29.863Z,21.40
2019-02-21T11:12:58.391Z,22.97
2019-02-21T11:15:27.126Z,22.50
2019-02-21T11:17:55.964Z,22.57
2019-02-21T11:20:24.446Z,23.37
2019-02-21T11:22:52.950Z,22.83
2019-02-21T11:25:21.626Z,24.90
2019-02-21T11:27:50.280Z,25.03
2019-02-21T11:30:22.392Z,24.60
2019-02-21T11:32:50.850Z,24.70
2019-02-21T11:35:19.422Z,23.87
2019-02-21T11:37:47.950Z,24.13
2019-02-21T11:40:17.765Z,24.90
2019-02-21T11:42:46.448Z,24.60
2019-02-21T11:45:21.499Z,24.23
2019-02-21T11:47:49.956Z,23.70
2019-02-21T11:50:19.137Z,23.57
2019-02-21T11:52:47.651Z,23.97
2019-02-21T11:55:26.185Z,24.33
2019-02-21T11:57:54.716Z,23.77
2019-02-21T12:00:30.684Z,23.37
2019-02-21T12:02:59.172Z,23.03
2019-02-21T12:05:31.379Z,23.23
2019-02-21T12:07:57.857Z,22.37
2019-02-21T12:10:26.530Z,24.13
2019-02-21T12:12:55.126Z,22.80
2019-02-21T12:15:23.698Z,23.40
2019-02-21T12:17:52.124Z,23.17
2019-02-21T12:20:21.026Z,22.33
2019-02-21T12:22:49.616Z,23.73
2019-02-21T12:25:22.716Z,21.80
2019-02-21T12:27:51.243Z,22.60
2019-02-21T12:30:20.827Z,23.40
2019-02-21T12:32:49.680Z,23.50
2019-02-21T12:35:28.745Z,22.20
2019-02-21T12:37:48.671Z,22.13
2019-02-21T12:40:19.124Z,22.43
2019-02-21T12:42:47.599Z,21.20
2019-02-21T12:45:20.568Z,22.33
2019-02-21T12:47:53.380Z,20.80
2019-02-21T12:50:19.290Z,22.60
2019-02-21T12:52:47.721Z,22.27
2019-02-21T12:55:26.967Z,22.77
2019-02-21T12:57:46.507Z,23.67
2019-02-21T13:00:19.715Z,21.67
2019-02-21T13:02:48.135Z,22.77
2019-02-21T13:05:16.637Z,22.67
2019-02-21T13:07:45.111Z,18.47
2019-02-21T13:10:18.304Z,21.17
2019-02-21T13:12:46.835Z,21.07
2019-02-21T13:15:15.935Z,22.20
2019-02-21T13:17:44.494Z,21.83
2019-02-21T13:20:14.215Z,22.90
2019-02-21T13:22:42.680Z,20.97
2019-02-21T13:25:13.252Z,21.77
2019-02-21T13:27:41.734Z,21.47
2019-02-21T13:30:12.996Z,22.97
2019-02-21T13:32:41.462Z,24.17
2019-02-21T13:35:10.702Z,23.70
2019-02-21T13:37:39.174Z,23.67
2019-02-21T13:40:10.575Z,23.07
2019-02-21T13:42:39.032Z,23.27
2019-02-21T13:45:09.668Z,21.67
2019-02-21T13:47:39.259Z,23.87
2019-02-21T13:50:16.171Z,23.83
2019-02-21T13:52:45.094Z,21.83
2019-02-21T13:55:13.747Z,22.57
2019-02-21T13:57:42.335Z,21.40
2019-02-21T14:00:13.893Z,24.80
2019-02-21T14:02:42.320Z,24.47
2019-02-21T14:05:11.008Z,26.20
2019-02-21T14:07:39.508Z,24.13
2019-02-21T14:10:13.016Z,21.37
2019-02-21T14:12:41.457Z,22.63
2019-02-21T14:15:15.857Z,21.17
2019-02-21T14:17:46.539Z,22.87
2019-02-21T14:20:14.780Z,23.27
2019-02-21T14:22:43.207Z,23.00
2019-02-21T14:25:11.842Z,22.03
2019-02-21T14:27:40.286Z,21.30
2019-02-21T14:30:14.391Z,22.63
2019-02-21T14:32:42.959Z,22.47
2019-02-21T14:35:12.767Z,22.57
2019-02-21T14:37:41.275Z,22.83
2019-02-21T14:40:11.917Z,22.67
2019-02-21T14:42:40.453Z,21.80
2019-02-21T14:45:12.555Z,20.40
2019-02-21T14:47:41.306Z,19.07
2019-02-21T14:50:12.012Z,18.33
2019-02-21T14:52:40.542Z,19.73
2019-02-21T14:55:14.133Z,20.17
2019-02-21T14:57:42.685Z,19.13
2019-02-21T15:00:22.462Z,19.80
2019-02-21T15:02:51.161Z,18.57
2019-02-21T15:05:20.161Z,19.13
2019-02-21T15:07:48.738Z,18.23
2019-02-21T15:10:17.436Z,17.73
2019-02-21T15:12:46.025Z,17.57
2019-02-21T15:15:23.065Z,18.27
2019-02-21T15:17:51.527Z,17.97
2019-02-21T15:20:20.203Z,17.17
2019-02-21T15:22:48.664Z,16.77
2019-02-21T15:25:17.096Z,16.03
2019-02-21T15:27:46.762Z,16.23
2019-02-21T15:30:20.793Z,17.73
2019-02-21T15:32:49.732Z,17.67
2019-02-21T15:35:19.461Z,16.20
2019-02-21T15:37:48.369Z,17.93
2019-02-21T15:40:16.885Z,17.40
2019-02-21T15:42:45.366Z,18.17
2019-02-21T15:45:23.009Z,18.20
2019-02-21T15:47:46.551Z,17.23
2019-02-21T15:50:15.625Z,18.00
2019-02-21T15:52:45.446Z,18.93
2019-02-21T15:55:16.215Z,17.40
2019-02-21T15:57:44.716Z,17.63
2019-02-21T16:00:16.047Z,17.67
2019-02-21T16:02:44.522Z,18.17
2019-02-21T16:05:13.104Z,18.57
2019-02-21T16:07:41.647Z,19.23
2019-02-21T16:10:12.989Z,19.40
2019-02-21T16:12:41.999Z,19.30
2019-02-21T16:15:16.042Z,19.37
2019-02-21T16:17:42.820Z,21.90
2019-02-21T16:20:13.914Z,28.60
2019-02-21T16:22:42.902Z,20.47
2019-02-21T16:25:14.381Z,20.30
2019-02-21T16:27:42.828Z,28.37
2019-02-21T16:30:12.754Z,24.47
2019-02-21T16:32:41.320Z,22.50
2019-02-21T16:35:12.270Z,22.67
2019-02-21T16:37:40.711Z,21.33
2019-02-21T16:40:12.163Z,21.37
2019-02-21T16:42:40.749Z,21.90
2019-02-21T16:45:11.652Z,23.93
2019-02-21T16:47:40.179Z,21.40
2019-02-21T16:50:11.303Z,22.17
2019-02-21T16:52:39.774Z,20.33
2019-02-21T16:55:19.458Z,21.43
2019-02-21T16:57:47.895Z,21.10
2019-02-21T17:00:18.216Z,20.60
2019-02-21T17:02:46.784Z,21.27
2019-02-21T17:05:15.901Z,21.67
2019-02-21T17:07:44.523Z,22.27
2019-02-21T17:10:17.944Z,21.73
2019-02-21T17:12:46.484Z,22.43
2019-02-21T17:15:16.117Z,21.60
2019-02-21T17:17:44.799Z,21.60
2019-02-21T17:20:18.458Z,21.83
2019-02-21T17:22:46.999Z,22.00
2019-02-21T17:25:16.330Z,22.33
2019-02-21T17:27:45.796Z,23.03
2019-02-21T17:30:18.523Z,23.93
2019-02-21T17:32:47.120Z,22.53
2019-02-21T17:35:15.739Z,22.83
2019-02-21T17:37:44.456Z,24.77
2019-02-21T17:40:18.953Z,24.00
2019-02-21T17:42:47.423Z,22.73
2019-02-21T17:45:15.952Z,23.37
2019-02-21T17:47:44.564Z,21.43
2019-02-21T17:50:17.776Z,24.33
2019-02-21T17:52:46.393Z,24.47
2019-02-21T17:55:16.171Z,23.77
2019-02-21T17:57:44.835Z,23.80
2019-02-21T18:00:25.572Z,23.40
2019-02-21T18:02:54.179Z,25.93
2019-02-21T18:05:22.684Z,23.43
2019-02-21T18:07:51.214Z,25.13
2019-02-21T18:10:19.727Z,24.77
2019-02-21T18:12:48.268Z,19.43
2019-02-21T18:15:17.738Z,19.73
2019-02-21T18:17:46.267Z,21.10
2019-02-21T18:20:15.739Z,20.90
2019-02-21T18:22:44.254Z,24.10
2019-02-21T18:25:32.719Z,21.53
2019-02-21T18:28:01.186Z,20.33
2019-02-21T18:30:29.694Z,19.20
2019-02-21T18:32:58.240Z,19.30
2019-02-21T18:35:26.762Z,19.17
2019-02-21T18:37:55.482Z,19.13
2019-02-21T18:40:26.448Z,19.57
2019-02-21T18:42:55.138Z,18.87
2019-02-21T18:45:23.744Z,19.30
2019-02-21T18:47:52.432Z,20.87
2019-02-21T18:50:21.047Z,22.43
2019-02-21T18:52:49.597Z,20.17
2019-02-21T18:55:18.059Z,22.67
2019-02-21T18:57:46.561Z,22.13
2019-02-21T19:00:23.646Z,21.20
2019-02-21T19:02:52.241Z,23.20
2019-02-21T19:05:21.552Z,22.27
2019-02-21T19:07:58.334Z,25.30
2019-02-21T19:10:21.364Z,21.77
2019-02-21T19:12:49.867Z,27.57
2019-02-21T19:15:21.994Z,25.37
2019-02-21T19:17:50.519Z,24.57
2019-02-21T19:20:22.065Z,24.10
2019-02-21T19:22:50.867Z,24.47
2019-02-21T19:25:19.334Z,24.07
2019-02-21T19:27:47.942Z,23.00
2019-02-21T19:30:34.479Z,23.73
2019-02-21T19:33:03.053Z,23.53
2019-02-21T19:35:31.659Z,22.27
2019-02-21T19:38:09.734Z,21.53
2019-02-21T19:40:30.511Z,22.97
2019-02-21T19:42:59.022Z,22.07
2019-02-21T19:45:27.524Z,22.23
2019-02-21T19:47:56.139Z,23.67
2019-02-21T19:50:25.006Z,23.20
2019-02-21T19:52:53.708Z,22.70
2019-02-21T19:55:22.370Z,21.90
2019-02-21T19:57:50.974Z,21.73
2019-02-21T20:00:25.746Z,23.53
2019-02-21T20:02:55.129Z,22.73
2019-02-21T20:05:23.743Z,22.40
2019-02-21T20:07:52.430Z,21.80
2019-02-21T20:10:20.966Z,23.13
2019-02-21T20:12:49.429Z,25.53
2019-02-21T20:15:17.944Z,25.60
2019-02-21T20:17:46.496Z,24.50
2019-02-21T20:20:20.214Z,23.63
2019-02-21T20:22:48.693Z,22.27
2019-02-21T20:25:17.177Z,23.40
2019-02-21T20:27:46.013Z,23.03
2019-02-21T20:30:16.508Z,22.17
2019-02-21T20:32:45.159Z,23.83
2019-02-21T20:35:13.667Z,24.93
2019-02-21T20:37:42.263Z,22.40
2019-02-21T20:40:11.656Z,24.57
2019-02-21T20:42:40.139Z,24.40
2019-02-21T20:45:13.270Z,23.60
2019-02-21T20:47:41.971Z,23.47
2019-02-21T20:50:12.833Z,24.63
2019-02-21T20:52:41.579Z,24.97
2019-02-21T20:55:11.298Z,24.70
2019-02-21T20:57:40.090Z,24.80
2019-02-21T21:00:17.717Z,25.87
2019-02-21T21:02:46.296Z,26.27
2019-02-21T21:05:15.519Z,25.27
2019-02-21T21:07:44.045Z,25.67
2019-02-21T21:10:14.726Z,26.93
2019-02-21T21:12:43.156Z,27.17
2019-02-21T21:15:13.472Z,26.50
2019-02-21T21:17:41.988Z,27.17
2019-02-21T21:20:16.626Z,26.73
2019-02-21T21:22:42.770Z,28.20
2019-02-21T21:25:13.860Z,26.73
2019-02-21T21:27:42.363Z,29.27
2019-02-21T21:30:13.273Z,29.27
2019-02-21T21:32:41.736Z,29.93
2019-02-21T21:35:10.450Z,27.70
2019-02-21T21:37:39.058Z,29.60
2019-02-21T21:40:10.878Z,27.87
2019-02-21T21:42:39.372Z,30.33
2019-02-21T21:45:10.966Z,31.20
2019-02-21T21:47:39.419Z,31.63
2019-02-21T21:50:10.691Z,31.47
2019-02-21T21:52:39.212Z,29.43
2019-02-21T21:55:07.858Z,31.40
2019-02-21T21:57:36.368Z,30.00
2019-02-21T22:00:08.994Z,30.43
2019-02-21T22:02:37.555Z,29.67
2019-02-21T22:05:08.572Z,30.70
2019-02-21T22:07:37.163Z,30.93
2019-02-21T22:10:08.701Z,31.07
2019-02-21T22:12:37.243Z,31.87
2019-02-21T22:15:08.916Z,32.23
2019-02-21T22:17:37.670Z,34.53
2019-02-21T22:20:07.436Z,32.93
2019-02-21T22:22:36.060Z,33.77
2019-02-21T22:25:06.863Z,32.23
2019-02-21T22:27:35.471Z,33.03
2019-02-21T22:30:05.053Z,32.33
2019-02-21T22:32:33.552Z,31.17
2019-02-21T22:35:01.995Z,32.57
2019-02-21T22:37:30.475Z,33.57
2019-02-21T22:39:58.958Z,33.20
2019-02-21T22:42:27.451Z,33.80
2019-02-21T22:44:55.910Z,32.83
2019-02-21T22:47:24.353Z,31.63
2019-02-21T22:49:52.836Z,34.63
2019-02-21T22:52:21.262Z,34.30
2019-02-21T22:54:49.801Z,36.03
2019-02-21T22:57:18.385Z,37.50
2019-02-21T22:59:55.754Z,36.80
2019-02-21T23:02:24.812Z,35.57
2019-02-21T23:04:59.235Z,33.53
2019-02-21T23:07:33.865Z,35.90
2019-02-21T23:10:02.404Z,37.20
2019-02-21T23:12:30.918Z,35.57
2019-02-21T23:14:59.487Z,34.67
2019-02-21T23:17:28.077Z,35.77
2019-02-21T23:19:56.692Z,34.93
2019-02-21T23:22:25.132Z,36.07
2019-02-21T23:24:53.700Z,34.83
2019-02-21T23:27:22.182Z,34.37
2019-02-21T23:29:50.648Z,35.03
2019-02-21T23:32:19.088Z,36.97
2019-02-21T23:34:47.581Z,35.20
2019-02-21T23:37:16.047Z,36.07
2019-02-21T23:39:44.971Z,38.30
2019-02-21T23:42:13.473Z,38.03
2019-02-21T23:44:41.911Z,37.47
2019-02-21T23:47:10.381Z,37.97
2019-02-21T23:49:38.889Z,35.77
2019-02-21T23:52:07.355Z,36.43
2019-02-21T23:54:35.799Z,38.37
2019-02-21T23:57:04.434Z,38.40
2019-02-21T23:59:32.898Z,35.00
